Airfield :
LOGIN :

Register | Disclaimer

   EN    FR    IT 

 










Legend :    VFR   Marginal VFR   IFR   Intensive IFR   Very Intensive IFR
Visi :
Ceiling :
>= 8 km
>= 3000ft
5 to 8 km
1000 to 3000 ft
1500m to 5 km
500 to 1000 ft
800 to 1500m
200 to 500 ft
< 800m
< 200 ft
Symbols :   Thunderstorms  Fog  Heavy snow  Heavy precipitations  Wind > 20 kt
SIGMETs :     Misc.  Thunderstorms  Icing  Turbulence  Mountain Waves  Volcanic Ashes






- Airport Elevation : 49 ft
- IATA code : AOI


LIPY - Ancona Falconara

CURRENT METAR :
  • 170650Z AUTO 17002KT 9000 NCD 01/01 Q1025

EXPIRED METARs :
  • 170620Z AUTO VRB02KT 9000 FEW049/// 02/01 Q1025
  • 170550Z AUTO 20004KT 7000 SCT050/// 02/02 Q1025
  • 170520Z AUTO 23005KT 7000 BKN051/// 01/01 Q1025
  • 170450Z AUTO 21003KT 5000 BR BKN055/// 01/01 Q1025
  • 170420Z AUTO VRB02KT 6000 BKN057/// 02/02 Q1025

TAF TAF LIPY
Valid from the 17 at 06:00 until the 18 at 06:00 UTC


170500Z 1706/1806 30007KT 8000 FEW040
BECMG 1718/1720 4000 BR



MET'MAP, your aeronautical weather chart ! - Copyright ORBIFLY December 2007 - Disclaimer

ORBIFLY MET'MAP TEAM :

Programming & Development : Alexandra Zaïnal
Concept & original design : Baudouin d'Aumeries
Assistance for programming : Marc-Olivier Méhu
Technical & hardware support : Manuel Goepfert

Contact : metmap@orbifly.com




SOURCES & CREDITS :

   NOAA